createdAt,value
2016-10-15T00:01:02.268Z,20.86
2016-10-15T00:02:12.843Z,20.89
2016-10-15T00:03:23.585Z,20.84
2016-10-15T00:04:34.160Z,20.81
2016-10-15T00:05:44.742Z,20.8
2016-10-15T00:07:14.533Z,20.8
2016-10-15T00:08:25.315Z,20.68
2016-10-15T00:09:35.885Z,20.74
2016-10-15T00:10:46.858Z,20.71
2016-10-15T00:11:57.455Z,20.69
2016-10-15T00:13:08.028Z,20.72
2016-10-15T00:14:19.163Z,20.68
2016-10-15T00:15:29.734Z,20.68
2016-10-15T00:16:40.305Z,20.68
2016-10-15T00:17:51.370Z,20.66
2016-10-15T00:19:02.430Z,20.71
2016-10-15T00:20:13.102Z,20.61
2016-10-15T00:21:23.686Z,20.53
2016-10-15T00:22:34.253Z,20.54
2016-10-15T00:23:44.831Z,20.64
2016-10-15T00:24:55.395Z,20.56
2016-10-15T00:26:07.478Z,20.47
2016-10-15T00:27:18.052Z,20.56
2016-10-15T00:28:29.025Z,20.58
2016-10-15T00:29:39.601Z,20.59
2016-10-15T00:30:50.182Z,20.5
2016-10-15T00:32:01.354Z,20.56
2016-10-15T00:33:11.933Z,20.51
2016-10-15T00:34:22.503Z,20.61
2016-10-15T00:35:33.081Z,20.58
2016-10-15T00:36:43.654Z,20.58
2016-10-15T00:37:54.328Z,20.5
2016-10-15T00:39:04.904Z,20.56
2016-10-15T00:40:15.481Z,20.61
2016-10-15T00:41:26.056Z,20.54
2016-10-15T00:42:36.636Z,20.51
2016-10-15T00:43:47.313Z,20.56
2016-10-15T00:44:57.880Z,20.51
2016-10-15T00:46:08.478Z,20.54
2016-10-15T00:47:19.447Z,20.58
2016-10-15T00:48:30.022Z,20.58
2016-10-15T00:49:40.692Z,20.59
2016-10-15T00:50:51.657Z,20.62
2016-10-15T00:52:02.240Z,20.53
2016-10-15T00:53:12.810Z,20.65
2016-10-15T00:54:23.395Z,20.51
2016-10-15T00:55:34.380Z,20.61
2016-10-15T00:56:44.951Z,20.51
2016-10-15T00:57:55.522Z,20.61
2016-10-15T00:59:06.098Z,20.56
2016-10-15T01:00:16.682Z,20.54
2016-10-15T01:01:27.371Z,20.51
2016-10-15T01:02:37.940Z,20.53
2016-10-15T01:03:48.527Z,20.51
2016-10-15T01:04:59.143Z,20.51
2016-10-15T01:06:09.734Z,20.47
2016-10-15T01:07:20.415Z,20.53
2016-10-15T01:08:31.004Z,20.56
2016-10-15T01:09:42.067Z,20.54
2016-10-15T01:10:52.647Z,20.56
2016-10-15T01:12:03.218Z,20.54
2016-10-15T01:13:13.897Z,20.61
2016-10-15T01:14:24.485Z,20.49
2016-10-15T01:15:35.064Z,20.51
2016-10-15T01:16:45.647Z,20.5
2016-10-15T01:17:56.223Z,20.56
2016-10-15T01:19:06.798Z,20.51
2016-10-15T01:20:17.372Z,20.53
2016-10-15T01:21:27.941Z,20.53
2016-10-15T01:22:39.024Z,20.54
2016-10-15T01:23:49.608Z,20.56
2016-10-15T01:25:00.773Z,20.54
2016-10-15T01:26:11.346Z,20.54
2016-10-15T01:27:22.323Z,20.58
2016-10-15T01:28:32.895Z,20.58
2016-10-15T01:29:43.483Z,20.49
2016-10-15T01:30:54.166Z,20.51
2016-10-15T01:32:04.738Z,20.56
2016-10-15T01:33:15.313Z,20.51
2016-10-15T01:34:25.893Z,20.61
2016-10-15T01:35:36.472Z,20.54
2016-10-15T01:36:47.155Z,20.59
2016-10-15T01:37:57.720Z,20.47
2016-10-15T01:39:08.305Z,20.56
2016-10-15T01:40:18.891Z,20.47
2016-10-15T01:41:29.469Z,20.49
2016-10-15T01:42:40.058Z,20.54
2016-10-15T01:43:50.637Z,20.54
2016-10-15T01:45:01.217Z,20.51
2016-10-15T01:46:11.814Z,20.56
2016-10-15T01:47:22.395Z,20.5
2016-10-15T01:48:33.072Z,20.58
2016-10-15T01:49:43.647Z,20.56
2016-10-15T01:50:54.223Z,20.59
2016-10-15T01:52:04.803Z,20.54
2016-10-15T01:53:15.392Z,20.49
2016-10-15T01:54:26.471Z,20.51
2016-10-15T01:55:37.045Z,20.62
2016-10-15T01:56:47.617Z,20.69
2016-10-15T01:57:58.201Z,20.68
2016-10-15T01:59:08.777Z,20.65
2016-10-15T02:00:19.464Z,20.69
2016-10-15T02:01:30.041Z,20.71
2016-10-15T02:02:41.128Z,20.66
2016-10-15T02:03:51.703Z,20.72
2016-10-15T02:05:02.277Z,20.66
2016-10-15T02:06:12.950Z,20.72
2016-10-15T02:07:23.529Z,20.8
2016-10-15T02:08:34.103Z,20.77
2016-10-15T02:09:44.673Z,20.72
2016-10-15T02:11:05.531Z,20.74
2016-10-15T02:12:16.253Z,20.72
2016-10-15T02:13:27.843Z,20.79
2016-10-15T02:14:39.199Z,20.79
2016-10-15T02:15:49.784Z,20.79
2016-10-15T02:17:00.358Z,20.69
2016-10-15T02:18:10.939Z,20.69
2016-10-15T02:19:21.515Z,20.69
2016-10-15T02:20:32.097Z,20.65
2016-10-15T02:21:42.676Z,20.76
2016-10-15T02:22:53.351Z,20.65
2016-10-15T02:24:03.932Z,20.74
2016-10-15T02:25:14.520Z,20.65
2016-10-15T02:26:25.107Z,20.72
2016-10-15T02:27:35.673Z,20.71
2016-10-15T02:28:46.360Z,20.71
2016-10-15T02:29:56.947Z,20.66
2016-10-15T02:31:07.513Z,20.69
2016-10-15T02:32:18.097Z,20.69
2016-10-15T02:33:28.677Z,20.71
2016-10-15T02:34:39.356Z,20.68
2016-10-15T02:35:49.930Z,20.59
2016-10-15T02:37:00.508Z,20.65
2016-10-15T02:38:11.094Z,20.61
2016-10-15T02:39:21.669Z,20.58
2016-10-15T02:40:32.240Z,20.51
2016-10-15T02:41:42.806Z,20.54
2016-10-15T02:42:53.387Z,20.53
2016-10-15T02:44:03.967Z,20.58
2016-10-15T02:45:15.024Z,20.56
2016-10-15T02:46:25.707Z,20.59
2016-10-15T02:47:36.279Z,20.56
2016-10-15T02:48:46.874Z,20.58
2016-10-15T02:49:57.830Z,20.51
2016-10-15T02:51:08.399Z,20.53
2016-10-15T02:52:19.080Z,20.58
2016-10-15T02:53:29.653Z,20.58
2016-10-15T02:54:40.238Z,20.54
2016-10-15T02:55:50.815Z,20.56
2016-10-15T02:57:01.385Z,20.49
2016-10-15T02:58:12.046Z,20.46
2016-10-15T02:59:22.613Z,20.54
2016-10-15T03:00:33.200Z,20.56
2016-10-15T03:01:44.169Z,20.47
2016-10-15T03:02:54.740Z,20.51
2016-10-15T03:04:05.368Z,20.42
2016-10-15T03:05:15.948Z,20.46
2016-10-15T03:06:26.548Z,20.47
2016-10-15T03:07:37.127Z,20.38
2016-10-15T03:08:47.704Z,20.43
2016-10-15T03:09:58.378Z,20.42
2016-10-15T03:11:09.250Z,20.42
2016-10-15T03:12:19.823Z,20.46
2016-10-15T03:13:30.398Z,20.34
2016-10-15T03:14:40.982Z,20.49
2016-10-15T03:15:51.657Z,20.35
2016-10-15T03:17:02.246Z,20.34
2016-10-15T03:18:12.808Z,20.42
2016-10-15T03:19:23.405Z,20.33
2016-10-15T03:20:34.000Z,20.38
2016-10-15T03:21:44.679Z,20.3
2016-10-15T03:22:55.263Z,20.34
2016-10-15T03:24:05.835Z,20.28
2016-10-15T03:25:16.409Z,20.38
2016-10-15T03:26:26.983Z,20.25
2016-10-15T03:27:37.550Z,20.28
2016-10-15T03:28:48.130Z,20.3
2016-10-15T03:29:58.707Z,20.21
2016-10-15T03:31:09.277Z,20.24
2016-10-15T03:32:19.849Z,20.13
2016-10-15T03:33:30.529Z,20.23
2016-10-15T03:34:41.104Z,20.24
2016-10-15T03:35:52.078Z,20.18
2016-10-15T03:37:02.657Z,20.13
2016-10-15T03:38:13.255Z,20.15
2016-10-15T03:39:23.945Z,20.15
2016-10-15T03:40:34.519Z,20.09
2016-10-15T03:41:45.099Z,20.02
2016-10-15T03:42:55.678Z,20.02
2016-10-15T03:44:06.251Z,20
2016-10-15T03:45:16.920Z,20.02
2016-10-15T03:46:27.495Z,20.08
2016-10-15T03:47:38.070Z,20.02
2016-10-15T03:48:48.651Z,20.09
2016-10-15T03:49:59.233Z,20.02
2016-10-15T03:51:09.819Z,19.98
2016-10-15T03:52:20.394Z,19.97
2016-10-15T03:53:30.971Z,19.93
2016-10-15T03:54:41.553Z,19.95
2016-10-15T03:55:52.122Z,19.88
2016-10-15T03:57:02.803Z,19.93
2016-10-15T03:58:13.379Z,19.83
2016-10-15T03:59:23.952Z,19.91
2016-10-15T04:00:34.509Z,19.94
2016-10-15T04:01:45.022Z,19.86
2016-10-15T04:02:55.704Z,19.78
2016-10-15T04:04:06.703Z,19.94
2016-10-15T04:05:17.219Z,19.93
2016-10-15T04:06:28.193Z,19.9
2016-10-15T04:07:38.729Z,19.84
2016-10-15T04:08:49.409Z,19.8
2016-10-15T04:10:00.342Z,19.86
2016-10-15T04:11:10.897Z,19.83
2016-10-15T04:12:21.426Z,19.84
2016-10-15T04:13:32.318Z,19.73
2016-10-15T04:14:42.859Z,19.73
2016-10-15T04:15:53.401Z,19.84
2016-10-15T04:17:03.940Z,19.73
2016-10-15T04:18:14.492Z,19.84
2016-10-15T04:19:25.064Z,19.8
2016-10-15T04:20:35.661Z,19.79
2016-10-15T04:21:46.213Z,19.78
2016-10-15T04:22:56.800Z,19.75
2016-10-15T04:24:07.350Z,19.72
2016-10-15T04:25:17.899Z,19.76
2016-10-15T04:26:29.027Z,19.79
2016-10-15T04:27:39.545Z,19.72
2016-10-15T04:28:50.117Z,19.79
2016-10-15T04:30:00.643Z,19.73
2016-10-15T04:31:11.240Z,19.69
2016-10-15T04:32:22.173Z,19.63
2016-10-15T04:33:32.678Z,19.58
2016-10-15T04:34:43.187Z,19.68
2016-10-15T04:35:53.681Z,19.63
2016-10-15T04:37:04.184Z,19.65
2016-10-15T04:38:14.810Z,19.63
2016-10-15T04:39:25.351Z,19.6
2016-10-15T04:40:35.894Z,19.6
2016-10-15T04:41:46.441Z,19.57
2016-10-15T04:42:57.374Z,19.55
2016-10-15T04:44:08.122Z,19.57
2016-10-15T04:45:18.650Z,19.55
2016-10-15T04:46:29.194Z,19.57
2016-10-15T04:47:39.697Z,19.47
2016-10-15T04:48:50.228Z,19.5
2016-10-15T04:50:00.847Z,19.47
2016-10-15T04:51:11.869Z,19.46
2016-10-15T04:52:22.374Z,19.39
2016-10-15T04:53:32.912Z,19.42
2016-10-15T04:54:43.473Z,19.4
2016-10-15T04:55:54.125Z,19.39
2016-10-15T04:57:04.673Z,19.42
2016-10-15T04:58:15.207Z,19.47
2016-10-15T04:59:25.705Z,19.42
2016-10-15T05:00:36.240Z,19.4
2016-10-15T05:01:46.842Z,19.39
2016-10-15T05:02:57.370Z,19.38
2016-10-15T05:04:08.410Z,19.39
2016-10-15T05:05:18.951Z,19.38
2016-10-15T05:06:29.474Z,19.36
2016-10-15T05:07:40.000Z,19.35
2016-10-15T05:08:50.540Z,19.38
2016-10-15T05:10:01.085Z,19.36
2016-10-15T05:11:11.634Z,19.38
2016-10-15T05:12:22.207Z,19.36
2016-10-15T05:13:32.857Z,19.39
2016-10-15T05:14:43.386Z,19.36
2016-10-15T05:15:53.932Z,19.38
2016-10-15T05:17:04.451Z,19.47
2016-10-15T05:18:14.948Z,19.38
2016-10-15T05:19:26.103Z,19.39
2016-10-15T05:20:36.653Z,19.4
2016-10-15T05:21:47.210Z,19.46
2016-10-15T05:22:57.771Z,19.39
2016-10-15T05:24:08.282Z,19.4
2016-10-15T05:25:18.997Z,19.36
2016-10-15T05:26:29.477Z,19.42
2016-10-15T05:27:40.039Z,19.31
2016-10-15T05:28:50.587Z,19.31
2016-10-15T05:30:01.137Z,19.42
2016-10-15T05:31:11.698Z,19.42
2016-10-15T05:32:22.255Z,19.39
2016-10-15T05:33:32.793Z,19.4
2016-10-15T05:34:43.333Z,19.36
2016-10-15T05:35:53.874Z,19.36
2016-10-15T05:37:04.575Z,19.43
2016-10-15T05:38:15.114Z,19.4
2016-10-15T05:39:25.620Z,19.31
2016-10-15T05:40:36.165Z,19.36
2016-10-15T05:41:46.718Z,19.36
2016-10-15T05:42:57.316Z,19.39
2016-10-15T05:44:07.864Z,19.33
2016-10-15T05:45:18.395Z,19.39
2016-10-15T05:46:28.997Z,19.36
2016-10-15T05:47:39.522Z,19.47
2016-10-15T05:48:50.188Z,19.46
2016-10-15T05:50:00.714Z,19.46
2016-10-15T05:51:11.267Z,19.4
2016-10-15T05:52:21.835Z,19.36
2016-10-15T05:53:32.319Z,19.39
2016-10-15T05:54:42.841Z,19.36
2016-10-15T05:55:53.421Z,19.4
2016-10-15T05:57:03.975Z,19.31
2016-10-15T05:58:14.512Z,19.36
2016-10-15T05:59:25.055Z,19.42
2016-10-15T06:00:35.680Z,19.4
2016-10-15T06:01:46.213Z,19.43
2016-10-15T06:02:56.731Z,19.46
2016-10-15T06:04:07.278Z,19.47
2016-10-15T06:05:17.743Z,19.43
2016-10-15T06:06:28.411Z,19.51
2016-10-15T06:07:38.937Z,19.43
2016-10-15T06:08:49.860Z,19.46
2016-10-15T06:10:00.409Z,19.47
2016-10-15T06:11:10.957Z,19.47
2016-10-15T06:12:21.571Z,19.47
2016-10-15T06:13:32.132Z,19.51
2016-10-15T06:14:42.682Z,19.47
2016-10-15T06:15:53.243Z,19.43
2016-10-15T06:17:03.770Z,19.43
2016-10-15T06:18:14.293Z,19.58
2016-10-15T06:19:25.221Z,19.58
2016-10-15T06:20:35.736Z,19.58
2016-10-15T06:21:46.248Z,19.58
2016-10-15T06:22:56.814Z,19.58
2016-10-15T06:24:07.857Z,19.54
2016-10-15T06:25:18.392Z,19.42
2016-10-15T06:26:28.860Z,19.51
2016-10-15T06:27:39.425Z,19.55
2016-10-15T06:28:49.928Z,19.55
2016-10-15T06:30:00.556Z,19.58
2016-10-15T06:31:11.095Z,19.66
2016-10-15T06:32:21.603Z,19.6
2016-10-15T06:33:32.113Z,19.5
2016-10-15T06:34:42.657Z,19.63
2016-10-15T06:35:53.300Z,19.58
2016-10-15T06:37:04.156Z,19.61
2016-10-15T06:38:14.707Z,19.63
2016-10-15T06:39:25.263Z,19.6
2016-10-15T06:40:35.754Z,19.63
2016-10-15T06:41:46.323Z,19.63
2016-10-15T06:42:56.852Z,19.65
2016-10-15T06:44:07.406Z,19.6
2016-10-15T06:45:17.927Z,19.68
2016-10-15T06:46:28.415Z,19.72
2016-10-15T06:47:39.153Z,19.61
2016-10-15T06:48:49.695Z,19.72
2016-10-15T06:50:00.209Z,19.66
2016-10-15T06:51:10.735Z,19.68
2016-10-15T06:52:21.277Z,19.68
2016-10-15T06:53:31.919Z,19.73
2016-10-15T06:54:42.465Z,19.63
2016-10-15T06:55:53.008Z,19.73
2016-10-15T06:57:03.562Z,19.65
2016-10-15T06:58:14.148Z,19.7
2016-10-15T06:59:25.061Z,19.68
2016-10-15T07:00:35.586Z,19.68
2016-10-15T07:01:46.097Z,19.65
2016-10-15T07:02:56.628Z,19.61
2016-10-15T07:04:07.192Z,19.69
2016-10-15T07:05:17.787Z,19.66
2016-10-15T07:06:28.314Z,19.61
2016-10-15T07:07:39.262Z,19.68
2016-10-15T07:08:49.750Z,19.66
2016-10-15T07:10:00.266Z,19.63
2016-10-15T07:11:10.856Z,19.63
2016-10-15T07:12:21.398Z,19.69
2016-10-15T07:13:31.884Z,19.73
2016-10-15T07:14:42.378Z,19.7
2016-10-15T07:15:52.898Z,19.66
2016-10-15T07:17:04.053Z,19.68
2016-10-15T07:18:14.617Z,19.73
2016-10-15T07:19:25.192Z,19.72
2016-10-15T07:20:36.263Z,19.73
2016-10-15T07:21:47.340Z,19.7
2016-10-15T07:22:57.914Z,19.68
2016-10-15T07:24:08.489Z,19.66
2016-10-15T07:25:19.069Z,19.72
2016-10-15T07:26:29.654Z,19.65
2016-10-15T07:27:40.226Z,19.65
2016-10-15T07:28:50.903Z,19.69
2016-10-15T07:30:01.489Z,19.68
2016-10-15T07:31:12.078Z,19.66
2016-10-15T07:32:22.666Z,19.75
2016-10-15T07:33:33.246Z,19.72
2016-10-15T07:34:43.925Z,19.66
2016-10-15T07:35:54.497Z,19.66
2016-10-15T07:37:05.070Z,19.68
2016-10-15T07:38:15.646Z,19.68
2016-10-15T07:39:26.216Z,19.7
2016-10-15T07:40:37.285Z,19.61
2016-10-15T07:41:47.854Z,19.68
2016-10-15T07:42:58.976Z,19.66
2016-10-15T07:44:09.574Z,19.63
2016-10-15T07:45:20.153Z,19.68
2016-10-15T07:46:30.720Z,19.73
2016-10-15T07:47:41.291Z,19.69
2016-10-15T07:48:51.864Z,19.66
2016-10-15T07:50:02.438Z,19.69
2016-10-15T07:51:12.977Z,19.65
2016-10-15T07:52:23.594Z,19.66
2016-10-15T07:53:34.090Z,19.66
2016-10-15T07:54:44.651Z,19.7
2016-10-15T07:55:55.161Z,19.66
2016-10-15T07:57:05.676Z,19.72
2016-10-15T07:58:16.328Z,19.68
2016-10-15T07:59:26.870Z,19.73
2016-10-15T08:00:37.407Z,19.63
2016-10-15T08:01:47.925Z,19.72
2016-10-15T08:02:58.451Z,19.69
2016-10-15T08:04:09.104Z,19.7
2016-10-15T08:05:19.645Z,19.69
2016-10-15T08:06:30.157Z,19.66
2016-10-15T08:07:40.726Z,19.63
2016-10-15T08:08:51.297Z,19.63
2016-10-15T08:10:01.825Z,19.68
2016-10-15T08:11:12.331Z,19.72
2016-10-15T08:12:22.886Z,19.8
2016-10-15T08:13:33.926Z,19.76
2016-10-15T08:14:44.842Z,19.8
2016-10-15T08:15:55.499Z,19.88
2016-10-15T08:17:06.031Z,19.83
2016-10-15T08:18:16.864Z,19.86
2016-10-15T08:19:27.367Z,19.84
2016-10-15T08:20:38.432Z,19.87
2016-10-15T08:21:49.082Z,19.78
2016-10-15T08:22:59.574Z,19.78
2016-10-15T08:24:10.030Z,19.79
2016-10-15T08:25:20.482Z,19.78
2016-10-15T08:26:30.934Z,19.69
2016-10-15T08:27:41.492Z,19.8
2016-10-15T08:28:51.944Z,19.79
2016-10-15T08:30:02.405Z,19.8
2016-10-15T08:31:12.857Z,19.73
2016-10-15T08:32:23.310Z,19.7
2016-10-15T08:33:33.873Z,19.73
2016-10-15T08:34:44.335Z,19.8
2016-10-15T08:35:54.791Z,19.73
2016-10-15T08:37:05.244Z,19.73
2016-10-15T08:38:16.173Z,19.72
2016-10-15T08:39:26.721Z,19.73
2016-10-15T08:40:37.188Z,19.84
2016-10-15T08:41:47.692Z,19.76
2016-10-15T08:42:58.143Z,19.75
2016-10-15T08:44:08.591Z,19.78
2016-10-15T08:45:19.057Z,19.87
2016-10-15T08:46:29.517Z,19.79
2016-10-15T08:47:39.970Z,19.8
2016-10-15T08:48:50.427Z,19.8
2016-10-15T08:50:00.884Z,19.9
2016-10-15T08:51:11.829Z,19.78
2016-10-15T08:52:22.289Z,19.78
2016-10-15T08:53:32.748Z,19.84
2016-10-15T08:54:43.195Z,19.86
2016-10-15T08:55:53.648Z,19.83
2016-10-15T08:57:04.203Z,19.83
2016-10-15T08:58:14.664Z,19.84
2016-10-15T08:59:25.116Z,19.84
2016-10-15T09:00:35.571Z,19.84
2016-10-15T09:01:46.017Z,19.94
2016-10-15T09:02:56.592Z,19.95
2016-10-15T09:04:07.056Z,19.93
2016-10-15T09:05:17.900Z,19.97
2016-10-15T09:06:28.370Z,19.91
2016-10-15T09:07:38.826Z,19.97
2016-10-15T09:08:49.280Z,19.95
2016-10-15T09:09:59.724Z,19.97
2016-10-15T09:11:10.183Z,20
2016-10-15T09:12:20.642Z,20.02
2016-10-15T09:13:31.094Z,20.08
2016-10-15T09:14:41.660Z,20.08
2016-10-15T09:15:52.114Z,20.03
2016-10-15T09:17:02.952Z,20.08
2016-10-15T09:18:13.389Z,19.97
2016-10-15T09:19:23.847Z,19.98
2016-10-15T09:20:34.408Z,20.03
2016-10-15T09:21:44.860Z,19.98
2016-10-15T09:22:55.319Z,19.98
2016-10-15T09:24:05.786Z,20.13
2016-10-15T09:25:16.237Z,20.18
2016-10-15T09:26:27.179Z,20.12
2016-10-15T09:27:37.638Z,20.13
2016-10-15T09:28:48.087Z,20.09
2016-10-15T09:29:58.535Z,20.21
2016-10-15T09:31:09.458Z,20.24
2016-10-15T09:32:19.919Z,20.23
2016-10-15T09:33:30.384Z,20.3
2016-10-15T09:34:40.853Z,20.28
2016-10-15T09:35:51.302Z,20.34
2016-10-15T09:37:01.761Z,20.38
2016-10-15T09:38:12.692Z,20.49
2016-10-15T09:39:23.158Z,20.58
2016-10-15T09:40:33.628Z,20.51
2016-10-15T09:41:44.084Z,20.62
2016-10-15T09:42:54.598Z,20.71
2016-10-15T09:44:05.163Z,20.83
2016-10-15T09:45:15.615Z,20.9
2016-10-15T09:46:26.083Z,20.96
2016-10-15T09:47:36.545Z,21.11
2016-10-15T09:48:47.005Z,21.48
2016-10-15T09:49:57.941Z,21.41
2016-10-15T09:51:08.404Z,21.56
2016-10-15T09:52:19.245Z,21.91
2016-10-15T09:53:30.082Z,21.83
2016-10-15T09:54:40.540Z,21.57
2016-10-15T09:55:50.993Z,21.44
2016-10-15T09:57:01.454Z,21.44
2016-10-15T09:58:11.914Z,21.56
2016-10-15T09:59:22.377Z,21.44
2016-10-15T10:00:32.846Z,21.61
2016-10-15T10:01:43.879Z,21.67
2016-10-15T10:02:54.395Z,21.75
2016-10-15T10:04:04.867Z,21.85
2016-10-15T10:05:15.314Z,22.01
2016-10-15T10:06:25.766Z,22.31
2016-10-15T10:07:36.363Z,22.41
2016-10-15T10:08:46.895Z,22.28
2016-10-15T10:09:57.387Z,22.37
2016-10-15T10:11:07.868Z,23.02
2016-10-15T10:12:18.357Z,23.57
2016-10-15T10:13:28.869Z,23.98
2016-10-15T10:14:39.405Z,24.05
2016-10-15T10:15:49.896Z,24.29
2016-10-15T10:17:00.393Z,24.61
2016-10-15T10:18:10.905Z,24.49
2016-10-15T10:19:21.522Z,24.24
2016-10-15T10:20:31.996Z,23.77
2016-10-15T10:21:42.499Z,23.57
2016-10-15T10:22:53.027Z,23.47
2016-10-15T10:24:03.529Z,23.39
2016-10-15T10:25:14.122Z,23.35
2016-10-15T10:26:24.617Z,23.31
2016-10-15T10:27:35.113Z,23.01
2016-10-15T10:28:45.570Z,22.83
2016-10-15T10:29:56.058Z,22.74
2016-10-15T10:31:06.690Z,22.59
2016-10-15T10:32:17.151Z,22.54
2016-10-15T10:33:27.672Z,22.54
2016-10-15T10:34:38.204Z,22.57
2016-10-15T10:35:48.738Z,22.53
2016-10-15T10:36:59.367Z,22.69
2016-10-15T10:38:09.916Z,22.89
2016-10-15T10:39:20.441Z,22.92
2016-10-15T10:40:30.957Z,22.83
2016-10-15T10:41:42.007Z,22.82
2016-10-15T10:42:53.163Z,22.99
2016-10-15T10:44:03.715Z,23.19
2016-10-15T10:45:14.273Z,23.14
2016-10-15T10:46:24.809Z,23.05
2016-10-15T10:47:35.334Z,22.87
2016-10-15T10:48:46.866Z,22.9
2016-10-15T10:49:57.907Z,22.94
2016-10-15T10:51:08.775Z,22.92
2016-10-15T10:52:20.486Z,22.71
2016-10-15T10:53:31.004Z,22.78
2016-10-15T10:54:41.937Z,22.8
2016-10-15T10:55:52.501Z,22.59
2016-10-15T10:57:03.049Z,22.64
2016-10-15T10:58:13.572Z,22.86
2016-10-15T10:59:24.157Z,23.05
2016-10-15T11:00:34.817Z,22.75
2016-10-15T11:01:45.347Z,22.92
2016-10-15T11:02:55.919Z,22.96
2016-10-15T11:04:06.483Z,23.19
2016-10-15T11:05:17.046Z,23.39
2016-10-15T11:06:27.704Z,24
2016-10-15T11:07:38.233Z,24.1
2016-10-15T11:08:48.756Z,24.13
2016-10-15T11:09:59.230Z,24.31
2016-10-15T11:11:09.683Z,24.42
2016-10-15T11:12:20.281Z,24.42
2016-10-15T11:13:30.801Z,24.5
2016-10-15T11:14:41.387Z,25
2016-10-15T11:15:51.926Z,25.09
2016-10-15T11:17:02.440Z,24.69
2016-10-15T11:18:13.011Z,24.79
2016-10-15T11:19:23.522Z,24.71
2016-10-15T11:20:34.003Z,24.79
2016-10-15T11:21:45.086Z,25.19
2016-10-15T11:22:55.606Z,25.44
2016-10-15T11:24:06.196Z,25.42
2016-10-15T11:25:16.744Z,25.86
2016-10-15T11:26:27.282Z,26.15
2016-10-15T11:27:37.846Z,26.09
2016-10-15T11:28:48.390Z,25.59
2016-10-15T11:29:58.999Z,25.34
2016-10-15T11:31:09.473Z,25.44
2016-10-15T11:32:19.964Z,25.02
2016-10-15T11:33:30.449Z,25.1
2016-10-15T11:34:41.002Z,24.98
2016-10-15T11:35:51.492Z,24.77
2016-10-15T11:37:02.417Z,24.91
2016-10-15T11:38:13.346Z,25.3
2016-10-15T11:39:23.860Z,25.9
2016-10-15T11:40:34.360Z,26.4
2016-10-15T11:41:44.999Z,26.58
2016-10-15T11:42:55.491Z,26.83
2016-10-15T11:44:06.004Z,27.11
2016-10-15T11:45:16.509Z,27.28
2016-10-15T11:46:27.017Z,27.01
2016-10-15T11:47:37.619Z,27.21
2016-10-15T11:48:48.100Z,27.33
2016-10-15T11:49:58.640Z,27.82
2016-10-15T11:51:09.148Z,28.29
2016-10-15T11:52:19.609Z,28.29
2016-10-15T11:53:30.177Z,27.66
2016-10-15T11:54:40.703Z,27.88
2016-10-15T11:55:51.199Z,27.73
2016-10-15T11:57:01.692Z,27.28
2016-10-15T11:58:12.153Z,27.39
2016-10-15T11:59:22.871Z,27.29
2016-10-15T12:00:33.734Z,27.43
2016-10-15T12:01:44.254Z,27.74
2016-10-15T12:02:54.805Z,27.2
2016-10-15T12:04:05.275Z,27.66
2016-10-15T12:05:16.259Z,28.65
2016-10-15T12:06:26.766Z,28.88
2016-10-15T12:07:37.273Z,28.96
2016-10-15T12:08:47.808Z,28.87
2016-10-15T12:09:58.381Z,29.31
2016-10-15T12:11:08.973Z,30.14
2016-10-15T12:12:19.476Z,29.99
2016-10-15T12:13:29.982Z,29.89
2016-10-15T12:14:40.472Z,29.87
2016-10-15T12:15:51.000Z,29.87
2016-10-15T12:17:01.581Z,29.97
2016-10-15T12:18:12.068Z,30.61
2016-10-15T12:19:22.534Z,31.24
2016-10-15T12:20:33.062Z,31.53
2016-10-15T12:21:43.594Z,31.24
2016-10-15T12:22:54.194Z,30.36
2016-10-15T12:24:04.707Z,29.87
2016-10-15T12:25:15.238Z,29.77
2016-10-15T12:26:25.774Z,30.07
2016-10-15T12:27:36.256Z,30.27
2016-10-15T12:28:46.775Z,29.47
2016-10-15T12:29:57.331Z,28.01
2016-10-15T12:31:07.833Z,28.25
2016-10-15T12:32:18.374Z,27.86
2016-10-15T12:33:28.901Z,28.29
2016-10-15T12:34:39.521Z,28.72
2016-10-15T12:35:50.044Z,28.93
2016-10-15T12:37:00.946Z,28.81
2016-10-15T12:38:11.428Z,29.03
2016-10-15T12:39:21.929Z,29.13
2016-10-15T12:40:32.521Z,29.11
2016-10-15T12:41:43.020Z,29.31
2016-10-15T12:42:53.500Z,29.93
2016-10-15T12:44:03.969Z,30.18
2016-10-15T12:45:14.887Z,30.24
2016-10-15T12:46:25.467Z,30.57
2016-10-15T12:47:35.986Z,31.17
2016-10-15T12:48:46.492Z,31.3
2016-10-15T12:49:56.981Z,31.42
2016-10-15T12:51:07.510Z,31.3
2016-10-15T12:52:18.091Z,30.78
2016-10-15T12:53:28.557Z,30.05
2016-10-15T12:54:39.025Z,30.03
2016-10-15T12:55:49.551Z,30.56
2016-10-15T12:57:00.039Z,31.05
2016-10-15T12:58:10.676Z,31.24
2016-10-15T12:59:21.197Z,31.46
2016-10-15T13:00:32.231Z,31.72
2016-10-15T13:01:43.597Z,32.13
2016-10-15T13:02:54.127Z,32.52
2016-10-15T13:04:04.768Z,33.36
2016-10-15T13:05:15.309Z,33.26
2016-10-15T13:06:25.841Z,33.3
2016-10-15T13:07:36.359Z,32.55
2016-10-15T13:08:46.876Z,32.4
2016-10-15T13:09:57.350Z,31.54
2016-10-15T13:11:07.871Z,30.94
2016-10-15T13:12:18.346Z,31.28
2016-10-15T13:13:28.834Z,31.43
2016-10-15T13:14:39.717Z,31.73
2016-10-15T13:15:50.801Z,32.07
2016-10-15T13:17:01.396Z,32.2
2016-10-15T13:18:11.961Z,31.85
2016-10-15T13:19:22.972Z,31.7
2016-10-15T13:20:33.492Z,32.07
2016-10-15T13:21:44.201Z,32.44
2016-10-15T13:22:54.745Z,32.57
2016-10-15T13:24:05.275Z,32.17
2016-10-15T13:25:15.836Z,31.84
2016-10-15T13:26:26.365Z,31.65
2016-10-15T13:27:37.028Z,32.07
2016-10-15T13:28:47.551Z,32.42
2016-10-15T13:29:58.513Z,32.22
2016-10-15T13:31:09.113Z,31.92
2016-10-15T13:32:19.646Z,32.13
2016-10-15T13:33:30.209Z,32.36
2016-10-15T13:34:40.806Z,32.8
2016-10-15T13:35:51.363Z,33.1
2016-10-15T13:37:01.938Z,33.14
2016-10-15T13:38:12.532Z,33.52
2016-10-15T13:39:23.147Z,33.73
2016-10-15T13:40:33.719Z,33.86
2016-10-15T13:41:44.725Z,34.48
2016-10-15T13:42:55.287Z,34.46
2016-10-15T13:44:05.834Z,34.04
2016-10-15T13:45:16.453Z,33.83
2016-10-15T13:46:27.005Z,33.95
2016-10-15T13:47:37.572Z,33.68
2016-10-15T13:48:48.102Z,33.34
2016-10-15T13:49:58.666Z,33.55
2016-10-15T13:51:09.229Z,33.15
2016-10-15T13:52:19.738Z,33.11
2016-10-15T13:53:30.218Z,33.41
2016-10-15T13:54:40.745Z,33.22
2016-10-15T13:55:51.318Z,32.89
2016-10-15T13:57:01.800Z,32.49
2016-10-15T13:58:12.346Z,32.18
2016-10-15T13:59:22.853Z,32.42
2016-10-15T14:00:33.366Z,32.42
2016-10-15T14:01:43.851Z,32.35
2016-10-15T14:02:54.451Z,32.54
2016-10-15T14:04:05.351Z,32.11
2016-10-15T14:05:16.332Z,32.4
2016-10-15T14:06:26.865Z,32.3
2016-10-15T14:07:37.396Z,32.22
2016-10-15T14:08:47.986Z,32.51
2016-10-15T14:09:58.463Z,32.42
2016-10-15T14:11:08.945Z,31.98
2016-10-15T14:12:19.412Z,31.85
2016-10-15T14:13:29.957Z,32.32
2016-10-15T14:14:40.940Z,32.29
2016-10-15T14:15:51.423Z,32.2
2016-10-15T14:17:01.900Z,32.32
2016-10-15T14:18:12.420Z,32.52
2016-10-15T14:19:22.942Z,32.84
2016-10-15T14:20:34.020Z,33.14
2016-10-15T14:21:44.525Z,33.34
2016-10-15T14:22:55.096Z,33.45
2016-10-15T14:24:06.027Z,33.42
2016-10-15T14:25:17.069Z,33.17
2016-10-15T14:26:27.838Z,33.17
2016-10-15T14:27:38.368Z,32.86
2016-10-15T14:28:48.892Z,32.48
2016-10-15T14:29:59.471Z,32.74
2016-10-15T14:31:10.036Z,32.73
2016-10-15T14:32:20.726Z,32.86
2016-10-15T14:33:31.654Z,32.64
2016-10-15T14:34:42.231Z,32.85
2016-10-15T14:35:52.803Z,32.99
2016-10-15T14:37:03.340Z,33.22
2016-10-15T14:38:14.400Z,33.19
2016-10-15T14:39:25.002Z,32.89
2016-10-15T14:40:35.514Z,33.33
2016-10-15T14:41:46.019Z,33.42
2016-10-15T14:42:56.565Z,33.76
2016-10-15T14:44:07.186Z,34.2
2016-10-15T14:45:17.713Z,33.58
2016-10-15T14:46:28.262Z,32.73
2016-10-15T14:47:38.767Z,32.61
2016-10-15T14:48:49.316Z,32.58
2016-10-15T14:49:59.914Z,32.74
2016-10-15T14:51:10.471Z,32.76
2016-10-15T14:52:21.009Z,32.93
2016-10-15T14:53:31.534Z,33.01
2016-10-15T14:54:42.105Z,32.59
2016-10-15T14:55:52.776Z,31.99
2016-10-15T14:57:03.296Z,31.55
2016-10-15T14:58:13.840Z,31.55
2016-10-15T14:59:24.430Z,31.64
2016-10-15T15:00:34.995Z,31.8
2016-10-15T15:01:45.676Z,32.24
2016-10-15T15:02:56.193Z,32.06
2016-10-15T15:04:06.769Z,31.46
2016-10-15T15:05:17.724Z,31.67
2016-10-15T15:06:28.305Z,31.87
2016-10-15T15:07:39.011Z,32.52
2016-10-15T15:08:49.558Z,32.85
2016-10-15T15:10:00.092Z,33.06
2016-10-15T15:11:11.027Z,32.98
2016-10-15T15:12:21.607Z,32.59
2016-10-15T15:13:32.173Z,32.59